sensor_id;sensor_type;location;lat;lon;timestamp;P1;durP1;ratioP1;P2;durP2;ratioP2
21334;SDS011;69435;52.670;13.544;2023-05-10T00:00:38;5.43;;;5.00;;
21334;SDS011;69435;52.670;13.544;2023-05-10T00:03:26;5.47;;;4.97;;
21334;SDS011;69435;52.670;13.544;2023-05-10T00:06:12;7.40;;;4.70;;
21334;SDS011;69435;52.670;13.544;2023-05-10T00:08:58;6.07;;;5.20;;
21334;SDS011;69435;52.670;13.544;2023-05-10T00:11:44;6.17;;;5.30;;
21334;SDS011;69435;52.670;13.544;2023-05-10T00:14:30;5.10;;;4.70;;
21334;SDS011;69435;52.670;13.544;2023-05-10T00:17:16;6.03;;;5.53;;
21334;SDS011;69435;52.670;13.544;2023-05-10T00:20:02;6.50;;;5.40;;
21334;SDS011;69435;52.670;13.544;2023-05-10T00:22:50;9.93;;;5.57;;
21334;SDS011;69435;52.670;13.544;2023-05-10T00:25:36;7.87;;;5.40;;
21334;SDS011;69435;52.670;13.544;2023-05-10T00:28:22;6.47;;;5.27;;
21334;SDS011;69435;52.670;13.544;2023-05-10T00:31:08;5.93;;;5.33;;
21334;SDS011;69435;52.670;13.544;2023-05-10T00:33:54;5.53;;;4.97;;
21334;SDS011;69435;52.670;13.544;2023-05-10T00:36:41;6.10;;;5.60;;
21334;SDS011;69435;52.670;13.544;2023-05-10T00:39:27;11.57;;;5.53;;
21334;SDS011;69435;52.670;13.544;2023-05-10T00:42:13;6.37;;;5.70;;
21334;SDS011;69435;52.670;13.544;2023-05-10T00:45:00;8.97;;;6.13;;
21334;SDS011;69435;52.670;13.544;2023-05-10T00:47:46;6.80;;;5.93;;
21334;SDS011;69435;52.670;13.544;2023-05-10T00:50:32;6.87;;;5.50;;
21334;SDS011;69435;52.670;13.544;2023-05-10T00:53:19;6.00;;;5.50;;
21334;SDS011;69435;52.670;13.544;2023-05-10T00:56:05;6.80;;;5.47;;
21334;SDS011;69435;52.670;13.544;2023-05-10T00:58:51;7.37;;;5.57;;
21334;SDS011;69435;52.670;13.544;2023-05-10T01:01:37;7.17;;;5.77;;
21334;SDS011;69435;52.670;13.544;2023-05-10T01:04:24;5.90;;;5.40;;
21334;SDS011;69435;52.670;13.544;2023-05-10T01:07:13;6.63;;;5.07;;
21334;SDS011;69435;52.670;13.544;2023-05-10T01:09:59;5.57;;;5.07;;
21334;SDS011;69435;52.670;13.544;2023-05-10T01:12:46;6.90;;;6.30;;
21334;SDS011;69435;52.670;13.544;2023-05-10T01:15:32;6.40;;;5.60;;
21334;SDS011;69435;52.670;13.544;2023-05-10T01:18:19;6.90;;;5.70;;
21334;SDS011;69435;52.670;13.544;2023-05-10T01:21:23;6.77;;;6.10;;
21334;SDS011;69435;52.670;13.544;2023-05-10T01:34:21;8.33;;;5.93;;
21334;SDS011;69435;52.670;13.544;2023-05-10T01:37:20;7.13;;;5.80;;
21334;SDS011;69435;52.670;13.544;2023-05-10T01:40:25;6.37;;;5.77;;
21334;SDS011;69435;52.670;13.544;2023-05-10T01:43:19;7.43;;;5.80;;
21334;SDS011;69435;52.670;13.544;2023-05-10T01:46:14;5.90;;;5.20;;
21334;SDS011;69435;52.670;13.544;2023-05-10T01:49:15;9.77;;;6.60;;
21334;SDS011;69435;52.670;13.544;2023-05-10T01:52:10;6.30;;;5.70;;
21334;SDS011;69435;52.670;13.544;2023-05-10T01:55:11;6.90;;;6.30;;
21334;SDS011;69435;52.670;13.544;2023-05-10T01:58:06;6.10;;;5.50;;
21334;SDS011;69435;52.670;13.544;2023-05-10T02:00:59;11.77;;;6.43;;
21334;SDS011;69435;52.670;13.544;2023-05-10T02:03:49;5.93;;;5.47;;
21334;SDS011;69435;52.670;13.544;2023-05-10T02:06:37;7.33;;;5.53;;
21334;SDS011;69435;52.670;13.544;2023-05-10T02:09:25;5.77;;;5.20;;
21334;SDS011;69435;52.670;13.544;2023-05-10T02:12:15;6.20;;;5.60;;
21334;SDS011;69435;52.670;13.544;2023-05-10T02:15:04;6.43;;;5.10;;
21334;SDS011;69435;52.670;13.544;2023-05-10T02:17:54;5.87;;;5.20;;
21334;SDS011;69435;52.670;13.544;2023-05-10T02:20:43;8.43;;;5.20;;
21334;SDS011;69435;52.670;13.544;2023-05-10T02:23:32;7.87;;;6.40;;
21334;SDS011;69435;52.670;13.544;2023-05-10T02:26:20;8.23;;;5.57;;
21334;SDS011;69435;52.670;13.544;2023-05-10T02:29:10;5.90;;;5.30;;
21334;SDS011;69435;52.670;13.544;2023-05-10T02:31:58;6.87;;;4.83;;
21334;SDS011;69435;52.670;13.544;2023-05-10T02:34:45;7.43;;;5.53;;
21334;SDS011;69435;52.670;13.544;2023-05-10T02:37:37;5.30;;;4.90;;
21334;SDS011;69435;52.670;13.544;2023-05-10T02:40:25;6.07;;;5.47;;
21334;SDS011;69435;52.670;13.544;2023-05-10T02:43:14;7.50;;;4.93;;
21334;SDS011;69435;52.670;13.544;2023-05-10T02:46:03;5.30;;;4.90;;
21334;SDS011;69435;52.670;13.544;2023-05-10T02:48:49;5.70;;;5.10;;
21334;SDS011;69435;52.670;13.544;2023-05-10T02:51:36;6.10;;;4.93;;
21334;SDS011;69435;52.670;13.544;2023-05-10T02:54:30;5.27;;;4.77;;
21334;SDS011;69435;52.670;13.544;2023-05-10T02:57:27;8.97;;;5.33;;
21334;SDS011;69435;52.670;13.544;2023-05-10T03:00:19;10.80;;;5.47;;
21334;SDS011;69435;52.670;13.544;2023-05-10T03:03:05;6.60;;;4.50;;
21334;SDS011;69435;52.670;13.544;2023-05-10T03:05:52;6.17;;;4.57;;
21334;SDS011;69435;52.670;13.544;2023-05-10T03:08:41;6.30;;;4.93;;
21334;SDS011;69435;52.670;13.544;2023-05-10T03:11:36;6.37;;;4.90;;
21334;SDS011;69435;52.670;13.544;2023-05-10T03:18:15;5.27;;;4.87;;
21334;SDS011;69435;52.670;13.544;2023-05-10T03:21:28;5.37;;;4.73;;
21334;SDS011;69435;52.670;13.544;2023-05-10T03:24:17;7.10;;;4.50;;
21334;SDS011;69435;52.670;13.544;2023-05-10T03:27:08;5.10;;;4.67;;
21334;SDS011;69435;52.670;13.544;2023-05-10T03:29:55;5.53;;;4.47;;
21334;SDS011;69435;52.670;13.544;2023-05-10T03:32:43;6.43;;;5.30;;
21334;SDS011;69435;52.670;13.544;2023-05-10T03:35:29;5.73;;;4.60;;
21334;SDS011;69435;52.670;13.544;2023-05-10T03:38:15;5.47;;;4.97;;
21334;SDS011;69435;52.670;13.544;2023-05-10T03:41:01;6.17;;;4.80;;
21334;SDS011;69435;52.670;13.544;2023-05-10T03:43:46;5.33;;;4.83;;
21334;SDS011;69435;52.670;13.544;2023-05-10T03:46:32;5.03;;;4.63;;
21334;SDS011;69435;52.670;13.544;2023-05-10T03:49:18;9.37;;;4.87;;
21334;SDS011;69435;52.670;13.544;2023-05-10T03:52:04;5.13;;;4.63;;
21334;SDS011;69435;52.670;13.544;2023-05-10T03:54:50;4.90;;;4.43;;
21334;SDS011;69435;52.670;13.544;2023-05-10T03:57:36;4.90;;;4.40;;
21334;SDS011;69435;52.670;13.544;2023-05-10T04:00:22;5.30;;;4.77;;
21334;SDS011;69435;52.670;13.544;2023-05-10T04:03:08;6.77;;;4.47;;
21334;SDS011;69435;52.670;13.544;2023-05-10T04:05:58;6.50;;;4.70;;
21334;SDS011;69435;52.670;13.544;2023-05-10T04:08:47;5.00;;;4.60;;
21334;SDS011;69435;52.670;13.544;2023-05-10T04:11:34;6.73;;;4.40;;
21334;SDS011;69435;52.670;13.544;2023-05-10T04:14:20;6.10;;;4.60;;
21334;SDS011;69435;52.670;13.544;2023-05-10T04:17:06;5.30;;;4.77;;
21334;SDS011;69435;52.670;13.544;2023-05-10T04:19:52;6.33;;;4.50;;
21334;SDS011;69435;52.670;13.544;2023-05-10T04:22:39;7.43;;;5.13;;
21334;SDS011;69435;52.670;13.544;2023-05-10T04:25:26;8.50;;;4.87;;
21334;SDS011;69435;52.670;13.544;2023-05-10T04:28:11;8.17;;;4.53;;
21334;SDS011;69435;52.670;13.544;2023-05-10T04:31:04;5.17;;;4.27;;
21334;SDS011;69435;52.670;13.544;2023-05-10T04:33:53;6.17;;;4.30;;
21334;SDS011;69435;52.670;13.544;2023-05-10T04:36:39;7.67;;;5.10;;
21334;SDS011;69435;52.670;13.544;2023-05-10T04:39:24;5.13;;;4.63;;
21334;SDS011;69435;52.670;13.544;2023-05-10T04:42:10;4.50;;;4.10;;
21334;SDS011;69435;52.670;13.544;2023-05-10T04:44:57;13.33;;;4.80;;
21334;SDS011;69435;52.670;13.544;2023-05-10T04:47:43;4.50;;;4.10;;
21334;SDS011;69435;52.670;13.544;2023-05-10T04:50:28;4.73;;;4.33;;
21334;SDS011;69435;52.670;13.544;2023-05-10T04:53:14;4.30;;;3.90;;
21334;SDS011;69435;52.670;13.544;2023-05-10T04:56:00;4.43;;;4.03;;
21334;SDS011;69435;52.670;13.544;2023-05-10T04:58:46;4.43;;;4.03;;
21334;SDS011;69435;52.670;13.544;2023-05-10T05:01:32;6.17;;;3.93;;
21334;SDS011;69435;52.670;13.544;2023-05-10T05:04:18;4.57;;;4.17;;
21334;SDS011;69435;52.670;13.544;2023-05-10T05:07:04;7.07;;;4.03;;
21334;SDS011;69435;52.670;13.544;2023-05-10T05:09:50;5.03;;;4.03;;
21334;SDS011;69435;52.670;13.544;2023-05-10T05:12:36;4.33;;;4.03;;
21334;SDS011;69435;52.670;13.544;2023-05-10T05:15:22;6.53;;;3.97;;
21334;SDS011;69435;52.670;13.544;2023-05-10T05:18:08;5.47;;;3.53;;
21334;SDS011;69435;52.670;13.544;2023-05-10T05:20:54;5.97;;;3.97;;
21334;SDS011;69435;52.670;13.544;2023-05-10T05:23:40;4.73;;;3.30;;
21334;SDS011;69435;52.670;13.544;2023-05-10T05:26:27;3.87;;;3.53;;
21334;SDS011;69435;52.670;13.544;2023-05-10T05:29:13;3.40;;;3.20;;
21334;SDS011;69435;52.670;13.544;2023-05-10T05:32:00;4.33;;;3.83;;
21334;SDS011;69435;52.670;13.544;2023-05-10T05:34:46;5.83;;;3.53;;
21334;SDS011;69435;52.670;13.544;2023-05-10T05:37:32;3.90;;;3.50;;
21334;SDS011;69435;52.670;13.544;2023-05-10T05:40:18;3.97;;;3.57;;
21334;SDS011;69435;52.670;13.544;2023-05-10T05:43:05;5.67;;;3.60;;
21334;SDS011;69435;52.670;13.544;2023-05-10T05:45:52;3.67;;;3.37;;
21334;SDS011;69435;52.670;13.544;2023-05-10T05:48:39;3.80;;;3.50;;
21334;SDS011;69435;52.670;13.544;2023-05-10T05:51:25;7.67;;;3.37;;
21334;SDS011;69435;52.670;13.544;2023-05-10T05:54:11;3.57;;;3.37;;
21334;SDS011;69435;52.670;13.544;2023-05-10T05:56:57;5.03;;;3.47;;
21334;SDS011;69435;52.670;13.544;2023-05-10T05:59:44;3.50;;;3.20;;
21334;SDS011;69435;52.670;13.544;2023-05-10T06:02:31;4.37;;;3.10;;
21334;SDS011;69435;52.670;13.544;2023-05-10T06:05:17;5.50;;;3.10;;
21334;SDS011;69435;52.670;13.544;2023-05-10T06:08:03;3.70;;;3.03;;
21334;SDS011;69435;52.670;13.544;2023-05-10T06:10:49;4.63;;;3.37;;
21334;SDS011;69435;52.670;13.544;2023-05-10T06:13:35;2.87;;;2.67;;
21334;SDS011;69435;52.670;13.544;2023-05-10T06:16:22;3.10;;;2.83;;
21334;SDS011;69435;52.670;13.544;2023-05-10T06:19:08;3.60;;;2.90;;
21334;SDS011;69435;52.670;13.544;2023-05-10T06:21:54;3.27;;;2.97;;
21334;SDS011;69435;52.670;13.544;2023-05-10T06:24:40;4.03;;;3.03;;
21334;SDS011;69435;52.670;13.544;2023-05-10T06:27:26;3.73;;;2.97;;
21334;SDS011;69435;52.670;13.544;2023-05-10T06:30:12;3.57;;;2.67;;
21334;SDS011;69435;52.670;13.544;2023-05-10T06:33:00;4.00;;;2.80;;
21334;SDS011;69435;52.670;13.544;2023-05-10T06:35:46;2.83;;;2.53;;
21334;SDS011;69435;52.670;13.544;2023-05-10T06:38:32;3.87;;;2.60;;
21334;SDS011;69435;52.670;13.544;2023-05-10T06:41:18;4.97;;;3.03;;
21334;SDS011;69435;52.670;13.544;2023-05-10T06:44:04;4.20;;;3.10;;
21334;SDS011;69435;52.670;13.544;2023-05-10T06:46:50;3.43;;;2.90;;
21334;SDS011;69435;52.670;13.544;2023-05-10T06:49:37;6.10;;;3.00;;
21334;SDS011;69435;52.670;13.544;2023-05-10T06:52:23;4.10;;;2.60;;
21334;SDS011;69435;52.670;13.544;2023-05-10T06:55:09;4.23;;;2.90;;
21334;SDS011;69435;52.670;13.544;2023-05-10T06:57:55;4.03;;;2.40;;
21334;SDS011;69435;52.670;13.544;2023-05-10T07:00:41;2.53;;;2.33;;
21334;SDS011;69435;52.670;13.544;2023-05-10T07:03:28;4.10;;;3.03;;
21334;SDS011;69435;52.670;13.544;2023-05-10T07:06:14;3.80;;;2.90;;
21334;SDS011;69435;52.670;13.544;2023-05-10T07:09:00;7.47;;;2.83;;
21334;SDS011;69435;52.670;13.544;2023-05-10T07:11:46;4.33;;;2.77;;
21334;SDS011;69435;52.670;13.544;2023-05-10T07:14:32;2.60;;;2.40;;
21334;SDS011;69435;52.670;13.544;2023-05-10T07:17:18;4.73;;;3.00;;
21334;SDS011;69435;52.670;13.544;2023-05-10T07:20:04;6.70;;;2.90;;
21334;SDS011;69435;52.670;13.544;2023-05-10T07:22:53;5.13;;;2.53;;
21334;SDS011;69435;52.670;13.544;2023-05-10T07:25:39;2.93;;;2.43;;
21334;SDS011;69435;52.670;13.544;2023-05-10T07:28:25;4.73;;;2.77;;
21334;SDS011;69435;52.670;13.544;2023-05-10T07:31:14;2.70;;;2.50;;
21334;SDS011;69435;52.670;13.544;2023-05-10T07:34:00;4.17;;;2.50;;
21334;SDS011;69435;52.670;13.544;2023-05-10T07:36:46;2.50;;;2.30;;
21334;SDS011;69435;52.670;13.544;2023-05-10T07:39:32;2.27;;;2.10;;
21334;SDS011;69435;52.670;13.544;2023-05-10T07:42:18;2.33;;;2.17;;
21334;SDS011;69435;52.670;13.544;2023-05-10T07:45:04;3.93;;;2.50;;
21334;SDS011;69435;52.670;13.544;2023-05-10T07:47:51;3.40;;;2.20;;
21334;SDS011;69435;52.670;13.544;2023-05-10T07:50:36;2.35;;;2.25;;
21334;SDS011;69435;52.670;13.544;2023-05-10T07:53:23;2.47;;;2.28;;
21334;SDS011;69435;52.670;13.544;2023-05-10T07:56:28;2.83;;;2.53;;
21334;SDS011;69435;52.670;13.544;2023-05-10T07:59:17;3.88;;;2.60;;
21334;SDS011;69435;52.670;13.544;2023-05-10T08:02:03;3.42;;;2.88;;
21334;SDS011;69435;52.670;13.544;2023-05-10T08:04:49;3.53;;;2.50;;
21334;SDS011;69435;52.670;13.544;2023-05-10T08:07:35;5.68;;;2.60;;
21334;SDS011;69435;52.670;13.544;2023-05-10T08:10:21;4.70;;;2.80;;
21334;SDS011;69435;52.670;13.544;2023-05-10T08:13:09;3.60;;;2.33;;
21334;SDS011;69435;52.670;13.544;2023-05-10T08:15:58;3.20;;;2.80;;
21334;SDS011;69435;52.670;13.544;2023-05-10T08:18:44;2.72;;;2.53;;
21334;SDS011;69435;52.670;13.544;2023-05-10T08:21:32;2.85;;;2.75;;
21334;SDS011;69435;52.670;13.544;2023-05-10T08:24:18;2.38;;;2.28;;
21334;SDS011;69435;52.670;13.544;2023-05-10T08:27:04;3.00;;;2.65;;
21334;SDS011;69435;52.670;13.544;2023-05-10T08:29:50;2.80;;;2.42;;
21334;SDS011;69435;52.670;13.544;2023-05-10T08:32:36;4.18;;;2.80;;
21334;SDS011;69435;52.670;13.544;2023-05-10T08:35:23;2.70;;;2.50;;
21334;SDS011;69435;52.670;13.544;2023-05-10T08:38:09;5.57;;;2.83;;
21334;SDS011;69435;52.670;13.544;2023-05-10T08:40:55;4.85;;;2.90;;
21334;SDS011;69435;52.670;13.544;2023-05-10T08:43:42;5.47;;;2.47;;
21334;SDS011;69435;52.670;13.544;2023-05-10T08:46:31;2.83;;;2.67;;
21334;SDS011;69435;52.670;13.544;2023-05-10T08:49:21;6.90;;;2.42;;
21334;SDS011;69435;52.670;13.544;2023-05-10T08:52:12;2.53;;;2.42;;
21334;SDS011;69435;52.670;13.544;2023-05-10T08:55:01;3.92;;;2.83;;
21334;SDS011;69435;52.670;13.544;2023-05-10T08:57:47;2.90;;;2.70;;
21334;SDS011;69435;52.670;13.544;2023-05-10T09:00:33;2.70;;;2.50;;
21334;SDS011;69435;52.670;13.544;2023-05-10T09:03:20;2.50;;;2.28;;
21334;SDS011;69435;52.670;13.544;2023-05-10T09:06:06;2.50;;;2.40;;
21334;SDS011;69435;52.670;13.544;2023-05-10T09:08:53;14.07;;;2.75;;
21334;SDS011;69435;52.670;13.544;2023-05-10T09:11:39;4.50;;;3.00;;
21334;SDS011;69435;52.670;13.544;2023-05-10T09:14:25;2.75;;;2.60;;
21334;SDS011;69435;52.670;13.544;2023-05-10T09:17:11;2.70;;;2.50;;
21334;SDS011;69435;52.670;13.544;2023-05-10T09:19:58;3.35;;;2.75;;
21334;SDS011;69435;52.670;13.544;2023-05-10T09:22:46;2.67;;;2.47;;
21334;SDS011;69435;52.670;13.544;2023-05-10T09:25:32;3.65;;;2.95;;
21334;SDS011;69435;52.670;13.544;2023-05-10T09:28:22;3.40;;;2.58;;
21334;SDS011;69435;52.670;13.544;2023-05-10T09:31:08;5.57;;;2.90;;
21334;SDS011;69435;52.670;13.544;2023-05-10T09:33:54;4.05;;;3.00;;
21334;SDS011;69435;52.670;13.544;2023-05-10T09:36:53;4.45;;;2.80;;
21334;SDS011;69435;52.670;13.544;2023-05-10T09:39:46;4.78;;;2.58;;
21334;SDS011;69435;52.670;13.544;2023-05-10T09:42:32;3.50;;;3.08;;
21334;SDS011;69435;52.670;13.544;2023-05-10T09:45:18;3.55;;;3.10;;
21334;SDS011;69435;52.670;13.544;2023-05-10T09:48:07;4.20;;;3.60;;
21334;SDS011;69435;52.670;13.544;2023-05-10T09:50:56;5.10;;;2.85;;
21334;SDS011;69435;52.670;13.544;2023-05-10T09:53:42;4.22;;;3.33;;
21334;SDS011;69435;52.670;13.544;2023-05-10T09:56:35;3.55;;;2.63;;
21334;SDS011;69435;52.670;13.544;2023-05-10T09:59:27;3.13;;;2.92;;
21334;SDS011;69435;52.670;13.544;2023-05-10T10:02:14;6.78;;;2.92;;
21334;SDS011;69435;52.670;13.544;2023-05-10T10:05:00;4.80;;;2.88;;
21334;SDS011;69435;52.670;13.544;2023-05-10T10:07:51;3.53;;;3.33;;
21334;SDS011;69435;52.670;13.544;2023-05-10T10:10:37;4.53;;;2.90;;
21334;SDS011;69435;52.670;13.544;2023-05-10T10:13:25;9.32;;;3.22;;
21334;SDS011;69435;52.670;13.544;2023-05-10T10:16:11;3.38;;;2.90;;
21334;SDS011;69435;52.670;13.544;2023-05-10T10:18:57;6.00;;;2.97;;
21334;SDS011;69435;52.670;13.544;2023-05-10T10:21:44;3.55;;;3.30;;
21334;SDS011;69435;52.670;13.544;2023-05-10T10:24:30;2.80;;;2.70;;
21334;SDS011;69435;52.670;13.544;2023-05-10T10:27:32;8.15;;;3.08;;
21334;SDS011;69435;52.670;13.544;2023-05-10T10:30:41;3.80;;;3.40;;
21334;SDS011;69435;52.670;13.544;2023-05-10T10:36:48;4.03;;;3.00;;
21334;SDS011;69435;52.670;13.544;2023-05-10T10:39:35;4.70;;;2.50;;
21334;SDS011;69435;52.670;13.544;2023-05-10T10:45:38;3.75;;;3.08;;
21334;SDS011;69435;52.670;13.544;2023-05-10T10:48:25;3.60;;;3.30;;
21334;SDS011;69435;52.670;13.544;2023-05-10T10:51:11;3.17;;;2.88;;
21334;SDS011;69435;52.670;13.544;2023-05-10T10:54:08;4.10;;;2.92;;
21334;SDS011;69435;52.670;13.544;2023-05-10T10:57:10;3.15;;;2.85;;
21334;SDS011;69435;52.670;13.544;2023-05-10T11:00:23;6.32;;;3.10;;
21334;SDS011;69435;52.670;13.544;2023-05-10T11:03:12;3.10;;;2.90;;
21334;SDS011;69435;52.670;13.544;2023-05-10T11:06:05;3.08;;;2.78;;
21334;SDS011;69435;52.670;13.544;2023-05-10T11:08:54;3.30;;;3.00;;
21334;SDS011;69435;52.670;13.544;2023-05-10T11:11:52;5.55;;;2.88;;
21334;SDS011;69435;52.670;13.544;2023-05-10T11:14:49;4.40;;;3.03;;
21334;SDS011;69435;52.670;13.544;2023-05-10T11:17:36;4.40;;;2.72;;
21334;SDS011;69435;52.670;13.544;2023-05-10T11:20:22;2.80;;;2.70;;
21334;SDS011;69435;52.670;13.544;2023-05-10T11:23:11;2.88;;;2.67;;
21334;SDS011;69435;52.670;13.544;2023-05-10T11:26:01;2.35;;;2.25;;
21334;SDS011;69435;52.670;13.544;2023-05-10T11:28:47;3.63;;;2.95;;
21334;SDS011;69435;52.670;13.544;2023-05-10T11:31:34;5.47;;;2.97;;
21334;SDS011;69435;52.670;13.544;2023-05-10T11:34:27;4.90;;;2.80;;
21334;SDS011;69435;52.670;13.544;2023-05-10T11:37:17;3.42;;;2.70;;
21334;SDS011;69435;52.670;13.544;2023-05-10T11:40:03;3.28;;;2.83;;
21334;SDS011;69435;52.670;13.544;2023-05-10T11:42:50;3.88;;;2.50;;
21334;SDS011;69435;52.670;13.544;2023-05-10T11:45:36;2.92;;;2.72;;
21334;SDS011;69435;52.670;13.544;2023-05-10T11:48:23;2.75;;;2.65;;
21334;SDS011;69435;52.670;13.544;2023-05-10T11:51:10;3.70;;;2.70;;
21334;SDS011;69435;52.670;13.544;2023-05-10T11:53:56;4.43;;;2.35;;
21334;SDS011;69435;52.670;13.544;2023-05-10T11:56:42;2.92;;;2.70;;
21334;SDS011;69435;52.670;13.544;2023-05-10T11:59:29;5.57;;;2.55;;
21334;SDS011;69435;52.670;13.544;2023-05-10T12:02:15;3.45;;;3.20;;
21334;SDS011;69435;52.670;13.544;2023-05-10T12:05:01;4.93;;;2.90;;
21334;SDS011;69435;52.670;13.544;2023-05-10T12:07:50;5.80;;;2.80;;
21334;SDS011;69435;52.670;13.544;2023-05-10T12:10:36;3.42;;;2.67;;
21334;SDS011;69435;52.670;13.544;2023-05-10T12:13:22;3.03;;;2.80;;
21334;SDS011;69435;52.670;13.544;2023-05-10T12:16:18;9.20;;;2.85;;
21334;SDS011;69435;52.670;13.544;2023-05-10T12:19:09;9.13;;;2.80;;
21334;SDS011;69435;52.670;13.544;2023-05-10T12:21:55;3.80;;;2.30;;
21334;SDS011;69435;52.670;13.544;2023-05-10T12:24:41;3.15;;;2.40;;
21334;SDS011;69435;52.670;13.544;2023-05-10T12:27:31;3.88;;;2.70;;
21334;SDS011;69435;52.670;13.544;2023-05-10T12:30:24;3.15;;;2.60;;
21334;SDS011;69435;52.670;13.544;2023-05-10T12:33:12;4.63;;;2.50;;
21334;SDS011;69435;52.670;13.544;2023-05-10T12:36:02;3.58;;;2.50;;
21334;SDS011;69435;52.670;13.544;2023-05-10T12:38:48;2.55;;;2.35;;
21334;SDS011;69435;52.670;13.544;2023-05-10T12:41:35;3.22;;;2.30;;
21334;SDS011;69435;52.670;13.544;2023-05-10T12:44:21;3.15;;;2.50;;
21334;SDS011;69435;52.670;13.544;2023-05-10T12:47:07;4.13;;;2.80;;
21334;SDS011;69435;52.670;13.544;2023-05-10T12:49:53;2.50;;;2.30;;
21334;SDS011;69435;52.670;13.544;2023-05-10T12:52:39;4.97;;;2.47;;
21334;SDS011;69435;52.670;13.544;2023-05-10T12:55:25;2.97;;;2.58;;
21334;SDS011;69435;52.670;13.544;2023-05-10T12:58:11;3.30;;;2.53;;
21334;SDS011;69435;52.670;13.544;2023-05-10T13:00:57;3.55;;;1.95;;
21334;SDS011;69435;52.670;13.544;2023-05-10T13:03:44;4.03;;;2.47;;
21334;SDS011;69435;52.670;13.544;2023-05-10T13:06:30;3.88;;;2.58;;
21334;SDS011;69435;52.670;13.544;2023-05-10T13:09:17;5.03;;;2.63;;
21334;SDS011;69435;52.670;13.544;2023-05-10T13:12:03;2.78;;;2.45;;
21334;SDS011;69435;52.670;13.544;2023-05-10T13:14:49;5.93;;;2.35;;
21334;SDS011;69435;52.670;13.544;2023-05-10T13:17:35;2.92;;;2.58;;
21334;SDS011;69435;52.670;13.544;2023-05-10T13:20:21;4.85;;;2.80;;
21334;SDS011;69435;52.670;13.544;2023-05-10T13:23:07;5.97;;;2.42;;
21334;SDS011;69435;52.670;13.544;2023-05-10T13:25:53;5.00;;;2.03;;
21334;SDS011;69435;52.670;13.544;2023-05-10T13:28:39;3.72;;;2.25;;
21334;SDS011;69435;52.670;13.544;2023-05-10T13:31:25;2.30;;;2.20;;
21334;SDS011;69435;52.670;13.544;2023-05-10T13:34:11;5.28;;;2.00;;
21334;SDS011;69435;52.670;13.544;2023-05-10T13:36:57;2.60;;;2.40;;
21334;SDS011;69435;52.670;13.544;2023-05-10T13:39:43;2.97;;;2.10;;
21334;SDS011;69435;52.670;13.544;2023-05-10T13:42:29;4.57;;;2.17;;
21334;SDS011;69435;52.670;13.544;2023-05-10T13:45:16;7.25;;;2.25;;
21334;SDS011;69435;52.670;13.544;2023-05-10T13:48:02;2.40;;;2.00;;
21334;SDS011;69435;52.670;13.544;2023-05-10T13:50:49;2.67;;;2.42;;
21334;SDS011;69435;52.670;13.544;2023-05-10T13:53:35;3.40;;;2.35;;
21334;SDS011;69435;52.670;13.544;2023-05-10T13:56:21;2.50;;;1.98;;
21334;SDS011;69435;52.670;13.544;2023-05-10T13:59:07;7.45;;;2.67;;
21334;SDS011;69435;52.670;13.544;2023-05-10T14:01:53;4.93;;;2.10;;
21334;SDS011;69435;52.670;13.544;2023-05-10T14:04:39;2.58;;;2.38;;
21334;SDS011;69435;52.670;13.544;2023-05-10T14:07:25;3.20;;;1.90;;
21334;SDS011;69435;52.670;13.544;2023-05-10T14:10:11;4.57;;;2.10;;
21334;SDS011;69435;52.670;13.544;2023-05-10T14:12:57;2.75;;;2.35;;
21334;SDS011;69435;52.670;13.544;2023-05-10T14:15:45;3.13;;;2.17;;
21334;SDS011;69435;52.670;13.544;2023-05-10T14:18:31;2.70;;;1.80;;
21334;SDS011;69435;52.670;13.544;2023-05-10T14:21:17;2.47;;;2.28;;
21334;SDS011;69435;52.670;13.544;2023-05-10T14:24:04;8.65;;;2.20;;
21334;SDS011;69435;52.670;13.544;2023-05-10T14:26:51;2.08;;;1.98;;
21334;SDS011;69435;52.670;13.544;2023-05-10T14:29:39;2.83;;;2.45;;
21334;SDS011;69435;52.670;13.544;2023-05-10T14:32:25;2.53;;;2.25;;
21334;SDS011;69435;52.670;13.544;2023-05-10T14:35:15;2.22;;;2.10;;
21334;SDS011;69435;52.670;13.544;2023-05-10T14:38:04;2.08;;;1.98;;
21334;SDS011;69435;52.670;13.544;2023-05-10T14:40:50;4.55;;;1.92;;
21334;SDS011;69435;52.670;13.544;2023-05-10T14:43:36;5.82;;;2.25;;
21334;SDS011;69435;52.670;13.544;2023-05-10T14:46:22;3.65;;;2.10;;
21334;SDS011;69435;52.670;13.544;2023-05-10T14:49:08;2.63;;;1.90;;
21334;SDS011;69435;52.670;13.544;2023-05-10T14:51:54;2.93;;;1.93;;
21334;SDS011;69435;52.670;13.544;2023-05-10T14:54:40;7.47;;;2.43;;
21334;SDS011;69435;52.670;13.544;2023-05-10T14:57:26;2.53;;;1.90;;
21334;SDS011;69435;52.670;13.544;2023-05-10T15:00:15;2.70;;;2.10;;
21334;SDS011;69435;52.670;13.544;2023-05-10T15:03:01;2.63;;;2.00;;
21334;SDS011;69435;52.670;13.544;2023-05-10T15:05:47;2.97;;;2.17;;
21334;SDS011;69435;52.670;13.544;2023-05-10T15:08:33;2.78;;;1.83;;
21334;SDS011;69435;52.670;13.544;2023-05-10T15:11:19;3.77;;;2.20;;
21334;SDS011;69435;52.670;13.544;2023-05-10T15:14:05;8.93;;;2.23;;
21334;SDS011;69435;52.670;13.544;2023-05-10T15:16:51;5.10;;;1.83;;
21334;SDS011;69435;52.670;13.544;2023-05-10T15:19:37;2.20;;;2.00;;
21334;SDS011;69435;52.670;13.544;2023-05-10T15:22:23;2.78;;;1.83;;
21334;SDS011;69435;52.670;13.544;2023-05-10T15:25:09;5.32;;;2.00;;
21334;SDS011;69435;52.670;13.544;2023-05-10T15:27:55;3.50;;;2.60;;
21334;SDS011;69435;52.670;13.544;2023-05-10T15:30:41;2.97;;;1.80;;
21334;SDS011;69435;52.670;13.544;2023-05-10T15:33:27;2.60;;;2.40;;
21334;SDS011;69435;52.670;13.544;2023-05-10T15:36:13;2.70;;;2.50;;
21334;SDS011;69435;52.670;13.544;2023-05-10T15:38:59;4.23;;;2.00;;
21334;SDS011;69435;52.670;13.544;2023-05-10T15:41:45;2.00;;;1.90;;
21334;SDS011;69435;52.670;13.544;2023-05-10T15:44:32;4.07;;;2.00;;
21334;SDS011;69435;52.670;13.544;2023-05-10T15:47:20;3.23;;;1.90;;
21334;SDS011;69435;52.670;13.544;2023-05-10T15:50:06;2.03;;;1.87;;
21334;SDS011;69435;52.670;13.544;2023-05-10T15:52:54;4.83;;;2.00;;
21334;SDS011;69435;52.670;13.544;2023-05-10T15:55:40;7.20;;;2.30;;
21334;SDS011;69435;52.670;13.544;2023-05-10T15:58:29;2.03;;;1.93;;
21334;SDS011;69435;52.670;13.544;2023-05-10T16:01:15;2.00;;;1.87;;
21334;SDS011;69435;52.670;13.544;2023-05-10T16:04:01;2.33;;;1.90;;
21334;SDS011;69435;52.670;13.544;2023-05-10T16:06:47;2.23;;;2.03;;
21334;SDS011;69435;52.670;13.544;2023-05-10T16:09:33;3.43;;;1.90;;
21334;SDS011;69435;52.670;13.544;2023-05-10T16:12:19;8.10;;;2.30;;
21334;SDS011;69435;52.670;13.544;2023-05-10T16:15:06;4.60;;;2.27;;
21334;SDS011;69435;52.670;13.544;2023-05-10T16:17:53;7.20;;;1.83;;
21334;SDS011;69435;52.670;13.544;2023-05-10T16:20:39;2.43;;;2.23;;
21334;SDS011;69435;52.670;13.544;2023-05-10T16:23:25;2.20;;;2.00;;
21334;SDS011;69435;52.670;13.544;2023-05-10T16:26:12;4.53;;;2.30;;
21334;SDS011;69435;52.670;13.544;2023-05-10T16:28:58;2.57;;;2.10;;
21334;SDS011;69435;52.670;13.544;2023-05-10T16:31:44;1.90;;;1.80;;
21334;SDS011;69435;52.670;13.544;2023-05-10T16:34:32;6.17;;;2.10;;
21334;SDS011;69435;52.670;13.544;2023-05-10T16:37:18;5.13;;;2.03;;
21334;SDS011;69435;52.670;13.544;2023-05-10T16:40:05;4.97;;;2.50;;
21334;SDS011;69435;52.670;13.544;2023-05-10T16:42:52;2.23;;;2.13;;
21334;SDS011;69435;52.670;13.544;2023-05-10T16:45:38;2.73;;;2.53;;
21334;SDS011;69435;52.670;13.544;2023-05-10T16:48:23;4.17;;;2.27;;
21334;SDS011;69435;52.670;13.544;2023-05-10T16:51:10;3.40;;;2.13;;
21334;SDS011;69435;52.670;13.544;2023-05-10T16:53:56;2.37;;;2.17;;